sensor_id;sensor_type;location;lat;lon;timestamp;temperature;humidity
18717;DHT22;9487;50.892;6.906;2023-06-05T00:00:19;16.20;99.90
18717;DHT22;9487;50.892;6.906;2023-06-05T00:02:46;16.10;99.90
18717;DHT22;9487;50.892;6.906;2023-06-05T00:05:15;16.00;99.90
18717;DHT22;9487;50.892;6.906;2023-06-05T00:07:44;16.10;99.90
18717;DHT22;9487;50.892;6.906;2023-06-05T00:10:11;15.80;99.90
18717;DHT22;9487;50.892;6.906;2023-06-05T00:12:38;15.70;99.90
18717;DHT22;9487;50.892;6.906;2023-06-05T00:15:07;15.70;99.90
18717;DHT22;9487;50.892;6.906;2023-06-05T00:17:34;15.80;99.90
18717;DHT22;9487;50.892;6.906;2023-06-05T00:20:02;16.10;99.90
18717;DHT22;9487;50.892;6.906;2023-06-05T00:22:31;16.30;99.90
18717;DHT22;9487;50.892;6.906;2023-06-05T00:24:59;16.40;99.90
18717;DHT22;9487;50.892;6.906;2023-06-05T00:27:27;16.50;99.90
18717;DHT22;9487;50.892;6.906;2023-06-05T00:29:54;16.40;99.90
18717;DHT22;9487;50.892;6.906;2023-06-05T00:32:21;16.30;99.90
18717;DHT22;9487;50.892;6.906;2023-06-05T00:34:48;16.10;99.90
18717;DHT22;9487;50.892;6.906;2023-06-05T00:37:15;15.90;99.90
18717;DHT22;9487;50.892;6.906;2023-06-05T00:39:43;15.70;99.90
18717;DHT22;9487;50.892;6.906;2023-06-05T00:42:10;15.50;99.90
18717;DHT22;9487;50.892;6.906;2023-06-05T00:44:37;15.50;99.90
18717;DHT22;9487;50.892;6.906;2023-06-05T00:47:06;15.70;99.90
18717;DHT22;9487;50.892;6.906;2023-06-05T00:49:34;15.80;99.90
18717;DHT22;9487;50.892;6.906;2023-06-05T00:52:01;15.80;99.90
18717;DHT22;9487;50.892;6.906;2023-06-05T00:54:28;15.80;99.90
18717;DHT22;9487;50.892;6.906;2023-06-05T00:56:57;15.60;99.90
18717;DHT22;9487;50.892;6.906;2023-06-05T00:59:24;15.40;99.90
18717;DHT22;9487;50.892;6.906;2023-06-05T01:01:52;15.30;99.90
18717;DHT22;9487;50.892;6.906;2023-06-05T01:04:19;15.30;99.90
18717;DHT22;9487;50.892;6.906;2023-06-05T01:06:49;15.50;99.90
18717;DHT22;9487;50.892;6.906;2023-06-05T01:09:17;15.70;99.90
18717;DHT22;9487;50.892;6.906;2023-06-05T01:11:52;15.60;99.90
18717;DHT22;9487;50.892;6.906;2023-06-05T01:14:23;15.50;99.90
18717;DHT22;9487;50.892;6.906;2023-06-05T01:16:54;15.40;99.90
18717;DHT22;9487;50.892;6.906;2023-06-05T01:19:22;15.20;99.90
18717;DHT22;9487;50.892;6.906;2023-06-05T01:21:50;15.10;99.90
18717;DHT22;9487;50.892;6.906;2023-06-05T01:24:18;15.10;99.90
18717;DHT22;9487;50.892;6.906;2023-06-05T01:26:57;15.00;99.90
18717;DHT22;9487;50.892;6.906;2023-06-05T01:29:34;15.20;99.90
18717;DHT22;9487;50.892;6.906;2023-06-05T01:32:05;15.40;99.90
18717;DHT22;9487;50.892;6.906;2023-06-05T01:34:34;15.40;99.90
18717;DHT22;9487;50.892;6.906;2023-06-05T01:37:03;15.30;99.90
18717;DHT22;9487;50.892;6.906;2023-06-05T01:39:35;15.20;99.90
18717;DHT22;9487;50.892;6.906;2023-06-05T01:42:04;15.20;99.90
18717;DHT22;9487;50.892;6.906;2023-06-05T01:44:31;15.10;99.90
18717;DHT22;9487;50.892;6.906;2023-06-05T01:46:59;14.90;99.90
18717;DHT22;9487;50.892;6.906;2023-06-05T01:49:26;14.90;99.90
18717;DHT22;9487;50.892;6.906;2023-06-05T01:51:53;15.10;99.90
18717;DHT22;9487;50.892;6.906;2023-06-05T01:54:20;15.20;99.90
18717;DHT22;9487;50.892;6.906;2023-06-05T01:56:51;14.80;99.90
18717;DHT22;9487;50.892;6.906;2023-06-05T01:59:18;14.50;99.90
18717;DHT22;9487;50.892;6.906;2023-06-05T02:01:45;14.40;99.90
18717;DHT22;9487;50.892;6.906;2023-06-05T02:04:12;14.40;99.90
18717;DHT22;9487;50.892;6.906;2023-06-05T02:06:42;14.30;99.90
18717;DHT22;9487;50.892;6.906;2023-06-05T02:09:09;14.20;99.90
18717;DHT22;9487;50.892;6.906;2023-06-05T02:11:39;14.40;99.90
18717;DHT22;9487;50.892;6.906;2023-06-05T02:14:09;14.70;99.90
18717;DHT22;9487;50.892;6.906;2023-06-05T02:16:39;14.80;99.90
18717;DHT22;9487;50.892;6.906;2023-06-05T02:19:07;14.70;99.90
18717;DHT22;9487;50.892;6.906;2023-06-05T02:21:34;14.70;99.90
18717;DHT22;9487;50.892;6.906;2023-06-05T02:24:02;14.60;99.90
18717;DHT22;9487;50.892;6.906;2023-06-05T02:26:29;14.50;99.90
18717;DHT22;9487;50.892;6.906;2023-06-05T02:28:57;14.50;99.90
18717;DHT22;9487;50.892;6.906;2023-06-05T02:31:26;14.40;99.90
18717;DHT22;9487;50.892;6.906;2023-06-05T02:33:55;14.40;99.90
18717;DHT22;9487;50.892;6.906;2023-06-05T02:36:22;14.10;99.90
18717;DHT22;9487;50.892;6.906;2023-06-05T02:38:50;14.00;99.90
18717;DHT22;9487;50.892;6.906;2023-06-05T02:41:18;13.90;99.90
18717;DHT22;9487;50.892;6.906;2023-06-05T02:43:46;13.90;99.90
18717;DHT22;9487;50.892;6.906;2023-06-05T02:46:13;14.10;99.90
18717;DHT22;9487;50.892;6.906;2023-06-05T02:48:42;14.30;99.90
18717;DHT22;9487;50.892;6.906;2023-06-05T02:51:09;14.30;99.90
18717;DHT22;9487;50.892;6.906;2023-06-05T02:53:36;14.20;99.90
18717;DHT22;9487;50.892;6.906;2023-06-05T02:56:03;14.10;99.90
18717;DHT22;9487;50.892;6.906;2023-06-05T02:58:30;14.10;99.90
18717;DHT22;9487;50.892;6.906;2023-06-05T03:00:59;14.10;99.90
18717;DHT22;9487;50.892;6.906;2023-06-05T03:03:29;14.20;99.90
18717;DHT22;9487;50.892;6.906;2023-06-05T03:05:58;13.90;99.90
18717;DHT22;9487;50.892;6.906;2023-06-05T03:08:30;13.70;99.90
18717;DHT22;9487;50.892;6.906;2023-06-05T03:10:57;13.80;99.90
18717;DHT22;9487;50.892;6.906;2023-06-05T03:13:25;13.90;99.90
18717;DHT22;9487;50.892;6.906;2023-06-05T03:15:52;13.60;99.90
18717;DHT22;9487;50.892;6.906;2023-06-05T03:18:23;13.50;99.90
18717;DHT22;9487;50.892;6.906;2023-06-05T03:20:50;13.40;99.90
18717;DHT22;9487;50.892;6.906;2023-06-05T03:23:21;13.60;99.90
18717;DHT22;9487;50.892;6.906;2023-06-05T03:25:49;13.90;99.90
18717;DHT22;9487;50.892;6.906;2023-06-05T03:28:17;13.90;99.90
18717;DHT22;9487;50.892;6.906;2023-06-05T03:30:44;13.90;99.90
18717;DHT22;9487;50.892;6.906;2023-06-05T03:33:11;14.00;99.90
18717;DHT22;9487;50.892;6.906;2023-06-05T03:35:39;14.00;99.90
18717;DHT22;9487;50.892;6.906;2023-06-05T03:38:06;14.00;99.90
18717;DHT22;9487;50.892;6.906;2023-06-05T03:40:35;14.00;99.90
18717;DHT22;9487;50.892;6.906;2023-06-05T03:43:04;13.90;99.90
18717;DHT22;9487;50.892;6.906;2023-06-05T03:45:32;13.80;99.90
18717;DHT22;9487;50.892;6.906;2023-06-05T03:47:59;13.70;99.90
18717;DHT22;9487;50.892;6.906;2023-06-05T03:50:26;13.60;99.90
18717;DHT22;9487;50.892;6.906;2023-06-05T03:52:56;13.50;99.90
18717;DHT22;9487;50.892;6.906;2023-06-05T03:55:29;13.30;99.90
18717;DHT22;9487;50.892;6.906;2023-06-05T03:58:10;13.20;99.90
18717;DHT22;9487;50.892;6.906;2023-06-05T04:00:39;13.20;99.90
18717;DHT22;9487;50.892;6.906;2023-06-05T04:03:06;13.50;99.90
18717;DHT22;9487;50.892;6.906;2023-06-05T04:05:34;13.60;99.90
18717;DHT22;9487;50.892;6.906;2023-06-05T04:08:01;13.50;99.90
18717;DHT22;9487;50.892;6.906;2023-06-05T04:10:29;13.50;99.90
18717;DHT22;9487;50.892;6.906;2023-06-05T04:12:56;13.80;99.90
18717;DHT22;9487;50.892;6.906;2023-06-05T04:15:25;14.00;99.90
18717;DHT22;9487;50.892;6.906;2023-06-05T04:17:52;14.10;99.90
18717;DHT22;9487;50.892;6.906;2023-06-05T04:20:20;14.10;99.90
18717;DHT22;9487;50.892;6.906;2023-06-05T04:22:47;14.10;99.90
18717;DHT22;9487;50.892;6.906;2023-06-05T04:25:14;14.00;99.90
18717;DHT22;9487;50.892;6.906;2023-06-05T04:27:43;13.90;99.90
18717;DHT22;9487;50.892;6.906;2023-06-05T04:30:11;14.00;99.90
18717;DHT22;9487;50.892;6.906;2023-06-05T04:32:40;13.90;99.90
18717;DHT22;9487;50.892;6.906;2023-06-05T04:35:08;13.80;99.90
18717;DHT22;9487;50.892;6.906;2023-06-05T04:37:36;13.80;99.90
18717;DHT22;9487;50.892;6.906;2023-06-05T04:40:05;13.70;99.90
18717;DHT22;9487;50.892;6.906;2023-06-05T04:42:35;13.60;99.90
18717;DHT22;9487;50.892;6.906;2023-06-05T04:45:04;13.60;99.90
18717;DHT22;9487;50.892;6.906;2023-06-05T04:47:32;13.60;99.90
18717;DHT22;9487;50.892;6.906;2023-06-05T04:50:02;13.60;99.90
18717;DHT22;9487;50.892;6.906;2023-06-05T04:52:30;13.80;99.90
18717;DHT22;9487;50.892;6.906;2023-06-05T04:54:57;13.90;99.90
18717;DHT22;9487;50.892;6.906;2023-06-05T04:57:25;14.10;99.90
18717;DHT22;9487;50.892;6.906;2023-06-05T04:59:52;14.40;99.90
18717;DHT22;9487;50.892;6.906;2023-06-05T05:02:20;14.70;99.90
18717;DHT22;9487;50.892;6.906;2023-06-05T05:04:47;14.80;99.90
18717;DHT22;9487;50.892;6.906;2023-06-05T05:07:16;14.80;99.90
18717;DHT22;9487;50.892;6.906;2023-06-05T05:09:43;14.90;99.90
18717;DHT22;9487;50.892;6.906;2023-06-05T05:12:11;15.00;99.90
18717;DHT22;9487;50.892;6.906;2023-06-05T05:14:38;15.00;99.90
18717;DHT22;9487;50.892;6.906;2023-06-05T05:17:06;15.00;99.90
18717;DHT22;9487;50.892;6.906;2023-06-05T05:19:33;14.90;99.90
18717;DHT22;9487;50.892;6.906;2023-06-05T05:22:00;14.80;99.90
18717;DHT22;9487;50.892;6.906;2023-06-05T05:24:28;15.00;99.90
18717;DHT22;9487;50.892;6.906;2023-06-05T05:26:56;15.30;99.90
18717;DHT22;9487;50.892;6.906;2023-06-05T05:29:22;15.40;99.90
18717;DHT22;9487;50.892;6.906;2023-06-05T05:31:49;15.20;99.90
18717;DHT22;9487;50.892;6.906;2023-06-05T05:34:17;15.20;99.90
18717;DHT22;9487;50.892;6.906;2023-06-05T05:36:44;15.40;99.90
18717;DHT22;9487;50.892;6.906;2023-06-05T05:39:11;15.40;99.90
18717;DHT22;9487;50.892;6.906;2023-06-05T05:41:39;15.20;99.90
18717;DHT22;9487;50.892;6.906;2023-06-05T05:44:06;15.30;99.90
18717;DHT22;9487;50.892;6.906;2023-06-05T05:46:33;15.10;99.90
18717;DHT22;9487;50.892;6.906;2023-06-05T05:49:00;15.20;99.90
18717;DHT22;9487;50.892;6.906;2023-06-05T05:51:27;15.10;99.90
18717;DHT22;9487;50.892;6.906;2023-06-05T05:53:54;15.20;99.90
18717;DHT22;9487;50.892;6.906;2023-06-05T05:56:21;15.30;99.90
18717;DHT22;9487;50.892;6.906;2023-06-05T05:58:49;15.50;99.90
18717;DHT22;9487;50.892;6.906;2023-06-05T06:01:16;15.80;99.90
18717;DHT22;9487;50.892;6.906;2023-06-05T06:03:43;16.10;99.90
18717;DHT22;9487;50.892;6.906;2023-06-05T06:06:10;16.30;99.90
18717;DHT22;9487;50.892;6.906;2023-06-05T06:08:37;16.20;99.90
18717;DHT22;9487;50.892;6.906;2023-06-05T06:11:04;15.90;99.90
18717;DHT22;9487;50.892;6.906;2023-06-05T06:13:32;15.90;99.90
18717;DHT22;9487;50.892;6.906;2023-06-05T06:16:02;16.00;99.90
18717;DHT22;9487;50.892;6.906;2023-06-05T06:18:29;16.20;99.90
18717;DHT22;9487;50.892;6.906;2023-06-05T06:20:56;16.60;99.90
18717;DHT22;9487;50.892;6.906;2023-06-05T06:23:23;17.00;99.90
18717;DHT22;9487;50.892;6.906;2023-06-05T06:25:50;17.50;99.90
18717;DHT22;9487;50.892;6.906;2023-06-05T06:28:17;17.60;99.90
18717;DHT22;9487;50.892;6.906;2023-06-05T06:30:45;17.70;99.90
18717;DHT22;9487;50.892;6.906;2023-06-05T06:33:13;17.90;99.90
18717;DHT22;9487;50.892;6.906;2023-06-05T06:35:40;17.90;99.90
18717;DHT22;9487;50.892;6.906;2023-06-05T06:38:07;17.80;99.90
18717;DHT22;9487;50.892;6.906;2023-06-05T06:40:34;18.10;99.90
18717;DHT22;9487;50.892;6.906;2023-06-05T06:43:01;17.60;99.90
18717;DHT22;9487;50.892;6.906;2023-06-05T06:45:27;17.60;99.90
18717;DHT22;9487;50.892;6.906;2023-06-05T06:47:54;17.80;99.90
18717;DHT22;9487;50.892;6.906;2023-06-05T06:50:23;18.30;99.90
18717;DHT22;9487;50.892;6.906;2023-06-05T06:52:50;18.70;99.90
18717;DHT22;9487;50.892;6.906;2023-06-05T06:55:17;19.20;99.90
18717;DHT22;9487;50.892;6.906;2023-06-05T06:57:44;18.60;99.90
18717;DHT22;9487;50.892;6.906;2023-06-05T07:00:11;18.00;99.90
18717;DHT22;9487;50.892;6.906;2023-06-05T07:02:40;18.40;99.90
18717;DHT22;9487;50.892;6.906;2023-06-05T07:05:07;18.40;99.90
18717;DHT22;9487;50.892;6.906;2023-06-05T07:07:36;18.80;99.90
18717;DHT22;9487;50.892;6.906;2023-06-05T07:10:03;19.20;99.90
18717;DHT22;9487;50.892;6.906;2023-06-05T07:12:30;18.90;99.90
18717;DHT22;9487;50.892;6.906;2023-06-05T07:14:57;18.90;99.90
18717;DHT22;9487;50.892;6.906;2023-06-05T07:17:24;19.30;99.90
18717;DHT22;9487;50.892;6.906;2023-06-05T07:19:53;18.90;99.90
18717;DHT22;9487;50.892;6.906;2023-06-05T07:22:19;19.00;99.90
18717;DHT22;9487;50.892;6.906;2023-06-05T07:24:48;19.00;99.90
18717;DHT22;9487;50.892;6.906;2023-06-05T07:27:15;19.10;99.90
18717;DHT22;9487;50.892;6.906;2023-06-05T07:29:42;18.90;99.90
18717;DHT22;9487;50.892;6.906;2023-06-05T07:32:08;18.90;99.90
18717;DHT22;9487;50.892;6.906;2023-06-05T07:34:35;18.90;99.90
18717;DHT22;9487;50.892;6.906;2023-06-05T07:37:02;19.00;99.90
18717;DHT22;9487;50.892;6.906;2023-06-05T07:39:29;19.30;99.90
18717;DHT22;9487;50.892;6.906;2023-06-05T07:41:57;19.40;99.90
18717;DHT22;9487;50.892;6.906;2023-06-05T07:44:24;19.40;99.90
18717;DHT22;9487;50.892;6.906;2023-06-05T07:46:52;19.40;99.90
18717;DHT22;9487;50.892;6.906;2023-06-05T07:49:19;19.40;99.90
18717;DHT22;9487;50.892;6.906;2023-06-05T07:51:48;19.30;99.90
18717;DHT22;9487;50.892;6.906;2023-06-05T07:54:16;19.60;99.90
18717;DHT22;9487;50.892;6.906;2023-06-05T07:56:46;19.90;99.90
18717;DHT22;9487;50.892;6.906;2023-06-05T07:59:16;19.80;99.90
18717;DHT22;9487;50.892;6.906;2023-06-05T08:01:48;19.90;99.90
18717;DHT22;9487;50.892;6.906;2023-06-05T08:04:15;19.80;99.90
18717;DHT22;9487;50.892;6.906;2023-06-05T08:06:45;19.80;99.90
18717;DHT22;9487;50.892;6.906;2023-06-05T08:09:12;20.00;99.90
18717;DHT22;9487;50.892;6.906;2023-06-05T08:11:39;20.10;99.90
18717;DHT22;9487;50.892;6.906;2023-06-05T08:14:07;19.90;99.90
18717;DHT22;9487;50.892;6.906;2023-06-05T08:16:36;20.10;99.90
18717;DHT22;9487;50.892;6.906;2023-06-05T08:19:04;20.40;99.90
18717;DHT22;9487;50.892;6.906;2023-06-05T08:21:34;20.00;99.90
18717;DHT22;9487;50.892;6.906;2023-06-05T08:24:02;20.00;99.90
18717;DHT22;9487;50.892;6.906;2023-06-05T08:26:29;20.30;99.90
18717;DHT22;9487;50.892;6.906;2023-06-05T08:28:56;20.60;99.90
18717;DHT22;9487;50.892;6.906;2023-06-05T08:31:24;20.70;99.90
18717;DHT22;9487;50.892;6.906;2023-06-05T08:33:52;20.90;99.90
18717;DHT22;9487;50.892;6.906;2023-06-05T08:36:19;20.80;99.90
18717;DHT22;9487;50.892;6.906;2023-06-05T08:38:46;20.50;99.90
18717;DHT22;9487;50.892;6.906;2023-06-05T08:41:14;20.30;99.90
18717;DHT22;9487;50.892;6.906;2023-06-05T08:43:43;20.40;99.90
18717;DHT22;9487;50.892;6.906;2023-06-05T08:46:12;20.50;99.90
18717;DHT22;9487;50.892;6.906;2023-06-05T08:48:42;20.70;99.90
18717;DHT22;9487;50.892;6.906;2023-06-05T08:51:12;21.00;99.70
18717;DHT22;9487;50.892;6.906;2023-06-05T08:53:41;21.10;96.50
18717;DHT22;9487;50.892;6.906;2023-06-05T08:56:08;21.00;95.80
18717;DHT22;9487;50.892;6.906;2023-06-05T08:58:36;21.10;96.60
18717;DHT22;9487;50.892;6.906;2023-06-05T09:01:03;21.20;94.20
18717;DHT22;9487;50.892;6.906;2023-06-05T09:03:32;21.20;95.10
18717;DHT22;9487;50.892;6.906;2023-06-05T09:06:01;21.20;93.50
18717;DHT22;9487;50.892;6.906;2023-06-05T09:08:32;21.50;93.20
18717;DHT22;9487;50.892;6.906;2023-06-05T09:11:22;21.90;91.70
18717;DHT22;9487;50.892;6.906;2023-06-05T09:13:50;22.00;90.60
18717;DHT22;9487;50.892;6.906;2023-06-05T09:16:19;22.00;91.70
18717;DHT22;9487;50.892;6.906;2023-06-05T09:18:55;22.10;92.30
18717;DHT22;9487;50.892;6.906;2023-06-05T09:21:24;21.90;90.70
18717;DHT22;9487;50.892;6.906;2023-06-05T09:24:12;21.70;92.00
18717;DHT22;9487;50.892;6.906;2023-06-05T09:26:48;21.90;92.00
18717;DHT22;9487;50.892;6.906;2023-06-05T09:29:21;21.80;92.50
18717;DHT22;9487;50.892;6.906;2023-06-05T09:31:48;21.90;92.90
18717;DHT22;9487;50.892;6.906;2023-06-05T09:34:26;22.20;92.80
18717;DHT22;9487;50.892;6.906;2023-06-05T09:36:55;22.50;91.90
18717;DHT22;9487;50.892;6.906;2023-06-05T09:39:27;22.50;91.20
18717;DHT22;9487;50.892;6.906;2023-06-05T09:41:55;22.20;89.00
18717;DHT22;9487;50.892;6.906;2023-06-05T09:44:23;22.00;90.30
18717;DHT22;9487;50.892;6.906;2023-06-05T09:46:58;22.20;89.60
18717;DHT22;9487;50.892;6.906;2023-06-05T09:49:26;22.60;88.80
18717;DHT22;9487;50.892;6.906;2023-06-05T09:51:55;22.60;85.90
18717;DHT22;9487;50.892;6.906;2023-06-05T09:54:23;22.70;84.10
18717;DHT22;9487;50.892;6.906;2023-06-05T09:56:56;22.80;83.60
18717;DHT22;9487;50.892;6.906;2023-06-05T09:59:27;22.90;81.70
18717;DHT22;9487;50.892;6.906;2023-06-05T10:01:54;22.90;81.60
18717;DHT22;9487;50.892;6.906;2023-06-05T10:04:23;23.10;80.50
18717;DHT22;9487;50.892;6.906;2023-06-05T10:06:54;23.00;78.60
18717;DHT22;9487;50.892;6.906;2023-06-05T10:09:23;23.30;80.20
18717;DHT22;9487;50.892;6.906;2023-06-05T10:11:51;23.30;76.60
18717;DHT22;9487;50.892;6.906;2023-06-05T10:14:20;23.60;73.50
18717;DHT22;9487;50.892;6.906;2023-06-05T10:16:49;23.90;72.90
18717;DHT22;9487;50.892;6.906;2023-06-05T10:19:17;24.10;72.30
18717;DHT22;9487;50.892;6.906;2023-06-05T10:21:46;24.00;71.00
18717;DHT22;9487;50.892;6.906;2023-06-05T10:24:18;24.10;71.00
18717;DHT22;9487;50.892;6.906;2023-06-05T10:27:19;24.40;70.00
18717;DHT22;9487;50.892;6.906;2023-06-05T10:33:01;24.90;66.40
18717;DHT22;9487;50.892;6.906;2023-06-05T10:35:41;24.90;58.90
18717;DHT22;9487;50.892;6.906;2023-06-05T10:38:16;24.50;53.20
18717;DHT22;9487;50.892;6.906;2023-06-05T10:40:45;24.50;53.10
18717;DHT22;9487;50.892;6.906;2023-06-05T10:43:33;24.70;53.70
18717;DHT22;9487;50.892;6.906;2023-06-05T10:46:01;25.00;52.70
18717;DHT22;9487;50.892;6.906;2023-06-05T10:49:10;25.20;50.40
18717;DHT22;9487;50.892;6.906;2023-06-05T10:51:40;24.70;47.50
18717;DHT22;9487;50.892;6.906;2023-06-05T10:54:09;24.10;48.50
18717;DHT22;9487;50.892;6.906;2023-06-05T10:56:56;24.40;48.00
18717;DHT22;9487;50.892;6.906;2023-06-05T10:59:27;24.50;47.50
18717;DHT22;9487;50.892;6.906;2023-06-05T11:02:22;24.70;47.60
18717;DHT22;9487;50.892;6.906;2023-06-05T11:05:19;25.00;47.00
18717;DHT22;9487;50.892;6.906;2023-06-05T11:07:47;25.40;47.50
18717;DHT22;9487;50.892;6.906;2023-06-05T11:10:15;25.50;46.70
18717;DHT22;9487;50.892;6.906;2023-06-05T11:12:59;25.80;46.30
18717;DHT22;9487;50.892;6.906;2023-06-05T11:15:40;25.90;47.20
18717;DHT22;9487;50.892;6.906;2023-06-05T11:18:33;25.90;45.50
18717;DHT22;9487;50.892;6.906;2023-06-05T11:21:02;25.60;44.10
18717;DHT22;9487;50.892;6.906;2023-06-05T11:23:34;25.60;44.30
18717;DHT22;9487;50.892;6.906;2023-06-05T11:26:40;25.50;44.30
18717;DHT22;9487;50.892;6.906;2023-06-05T11:29:14;25.10;44.50
18717;DHT22;9487;50.892;6.906;2023-06-05T11:31:44;25.00;45.50
18717;DHT22;9487;50.892;6.906;2023-06-05T11:34:12;25.00;43.70
18717;DHT22;9487;50.892;6.906;2023-06-05T11:36:39;25.30;43.50
18717;DHT22;9487;50.892;6.906;2023-06-05T11:39:06;25.50;41.90
18717;DHT22;9487;50.892;6.906;2023-06-05T11:41:34;25.70;42.40
18717;DHT22;9487;50.892;6.906;2023-06-05T11:44:01;25.80;41.70
18717;DHT22;9487;50.892;6.906;2023-06-05T11:46:37;26.00;40.30
18717;DHT22;9487;50.892;6.906;2023-06-05T11:49:06;26.20;39.80
18717;DHT22;9487;50.892;6.906;2023-06-05T11:51:33;26.20;37.30
18717;DHT22;9487;50.892;6.906;2023-06-05T11:54:00;25.80;37.80
18717;DHT22;9487;50.892;6.906;2023-06-05T11:56:28;25.80;40.40
18717;DHT22;9487;50.892;6.906;2023-06-05T11:58:55;25.80;40.40
18717;DHT22;9487;50.892;6.906;2023-06-05T12:01:23;25.90;39.80
18717;DHT22;9487;50.892;6.906;2023-06-05T12:04:05;26.00;40.60
18717;DHT22;9487;50.892;6.906;2023-06-05T12:06:39;26.10;40.70
18717;DHT22;9487;50.892;6.906;2023-06-05T12:09:07;26.30;40.60
18717;DHT22;9487;50.892;6.906;2023-06-05T12:11:35;26.50;40.20
18717;DHT22;9487;50.892;6.906;2023-06-05T12:14:03;26.60;40.20
18717;DHT22;9487;50.892;6.906;2023-06-05T12:16:32;26.70;39.60
18717;DHT22;9487;50.892;6.906;2023-06-05T12:18:59;26.70;39.30
18717;DHT22;9487;50.892;6.906;2023-06-05T12:21:28;26.80;38.40
18717;DHT22;9487;50.892;6.906;2023-06-05T12:24:01;26.90;38.10
18717;DHT22;9487;50.892;6.906;2023-06-05T12:26:28;27.00;37.80
18717;DHT22;9487;50.892;6.906;2023-06-05T12:29:02;26.90;38.40
18717;DHT22;9487;50.892;6.906;2023-06-05T12:31:34;26.80;37.70
18717;DHT22;9487;50.892;6.906;2023-06-05T12:34:02;26.70;37.30
18717;DHT22;9487;50.892;6.906;2023-06-05T12:36:31;26.60;38.30
18717;DHT22;9487;50.892;6.906;2023-06-05T12:39:05;26.60;38.20
18717;DHT22;9487;50.892;6.906;2023-06-05T12:41:32;26.70;37.60
18717;DHT22;9487;50.892;6.906;2023-06-05T12:44:00;26.80;38.30
18717;DHT22;9487;50.892;6.906;2023-06-05T12:46:30;27.00;38.70
18717;DHT22;9487;50.892;6.906;2023-06-05T12:48:57;27.10;37.50
18717;DHT22;9487;50.892;6.906;2023-06-05T12:51:24;27.20;36.20
18717;DHT22;9487;50.892;6.906;2023-06-05T12:53:53;27.20;35.00
18717;DHT22;9487;50.892;6.906;2023-06-05T12:56:21;27.00;36.50
18717;DHT22;9487;50.892;6.906;2023-06-05T12:58:51;26.90;36.40
18717;DHT22;9487;50.892;6.906;2023-06-05T13:01:18;26.50;36.10
18717;DHT22;9487;50.892;6.906;2023-06-05T13:03:45;26.00;37.20
18717;DHT22;9487;50.892;6.906;2023-06-05T13:06:13;26.00;38.20
18717;DHT22;9487;50.892;6.906;2023-06-05T13:08:40;25.90;37.90
18717;DHT22;9487;50.892;6.906;2023-06-05T13:11:08;25.60;37.50
18717;DHT22;9487;50.892;6.906;2023-06-05T13:13:36;25.60;38.40
18717;DHT22;9487;50.892;6.906;2023-06-05T13:16:03;26.00;38.20
18717;DHT22;9487;50.892;6.906;2023-06-05T13:18:33;25.90;37.40
18717;DHT22;9487;50.892;6.906;2023-06-05T13:21:01;25.90;37.20
18717;DHT22;9487;50.892;6.906;2023-06-05T13:23:28;25.80;37.60
18717;DHT22;9487;50.892;6.906;2023-06-05T13:25:55;25.50;38.20
18717;DHT22;9487;50.892;6.906;2023-06-05T13:28:23;25.50;39.10
18717;DHT22;9487;50.892;6.906;2023-06-05T13:30:50;25.80;39.10
18717;DHT22;9487;50.892;6.906;2023-06-05T13:33:17;25.90;38.30
18717;DHT22;9487;50.892;6.906;2023-06-05T13:35:45;25.90;38.40
18717;DHT22;9487;50.892;6.906;2023-06-05T13:38:12;26.10;38.30
18717;DHT22;9487;50.892;6.906;2023-06-05T13:40:39;26.40;38.20
18717;DHT22;9487;50.892;6.906;2023-06-05T13:43:07;26.70;38.20
18717;DHT22;9487;50.892;6.906;2023-06-05T13:45:35;26.20;38.00
18717;DHT22;9487;50.892;6.906;2023-06-05T13:48:02;26.10;38.00
18717;DHT22;9487;50.892;6.906;2023-06-05T13:50:29;26.50;38.40
18717;DHT22;9487;50.892;6.906;2023-06-05T13:52:56;26.10;38.30
18717;DHT22;9487;50.892;6.906;2023-06-05T13:55:23;26.00;38.10
18717;DHT22;9487;50.892;6.906;2023-06-05T13:57:50;26.10;38.10
18717;DHT22;9487;50.892;6.906;2023-06-05T14:00:18;26.30;39.60
18717;DHT22;9487;50.892;6.906;2023-06-05T14:02:46;26.70;40.40
18717;DHT22;9487;50.892;6.906;2023-06-05T14:05:13;26.90;39.80
18717;DHT22;9487;50.892;6.906;2023-06-05T14:07:40;26.90;39.90
18717;DHT22;9487;50.892;6.906;2023-06-05T14:10:08;26.60;39.40
18717;DHT22;9487;50.892;6.906;2023-06-05T14:12:35;26.20;40.50
18717;DHT22;9487;50.892;6.906;2023-06-05T14:15:04;26.30;42.10
18717;DHT22;9487;50.892;6.906;2023-06-05T14:17:36;25.70;42.40
18717;DHT22;9487;50.892;6.906;2023-06-05T14:20:09;26.00;43.40
18717;DHT22;9487;50.892;6.906;2023-06-05T14:22:36;26.40;43.50
18717;DHT22;9487;50.892;6.906;2023-06-05T14:25:04;26.60;43.80
18717;DHT22;9487;50.892;6.906;2023-06-05T14:27:31;26.90;44.60
18717;DHT22;9487;50.892;6.906;2023-06-05T14:29:58;26.80;41.20
18717;DHT22;9487;50.892;6.906;2023-06-05T14:32:25;26.60;41.80
18717;DHT22;9487;50.892;6.906;2023-06-05T14:34:52;26.60;42.20
18717;DHT22;9487;50.892;6.906;2023-06-05T14:37:20;27.00;42.30
18717;DHT22;9487;50.892;6.906;2023-06-05T14:39:47;27.40;42.50
18717;DHT22;9487;50.892;6.906;2023-06-05T14:42:16;27.50;39.20
18717;DHT22;9487;50.892;6.906;2023-06-05T14:44:43;27.10;39.70
18717;DHT22;9487;50.892;6.906;2023-06-05T14:47:10;26.90;38.40
18717;DHT22;9487;50.892;6.906;2023-06-05T14:49:37;26.60;40.40
18717;DHT22;9487;50.892;6.906;2023-06-05T14:52:05;26.60;41.70
18717;DHT22;9487;50.892;6.906;2023-06-05T14:54:33;26.30;42.70
18717;DHT22;9487;50.892;6.906;2023-06-05T14:57:00;26.40;43.40
18717;DHT22;9487;50.892;6.906;2023-06-05T14:59:27;26.30;42.80
18717;DHT22;9487;50.892;6.906;2023-06-05T15:01:56;26.30;42.70
18717;DHT22;9487;50.892;6.906;2023-06-05T15:04:24;26.20;42.50
18717;DHT22;9487;50.892;6.906;2023-06-05T15:06:51;26.10;42.30
18717;DHT22;9487;50.892;6.906;2023-06-05T15:09:19;26.10;42.50
18717;DHT22;9487;50.892;6.906;2023-06-05T15:11:47;26.10;43.30
18717;DHT22;9487;50.892;6.906;2023-06-05T15:14:14;26.10;42.70
18717;DHT22;9487;50.892;6.906;2023-06-05T15:16:40;26.10;43.10
18717;DHT22;9487;50.892;6.906;2023-06-05T15:19:07;26.20;42.60
18717;DHT22;9487;50.892;6.906;2023-06-05T15:21:34;26.50;43.00
18717;DHT22;9487;50.892;6.906;2023-06-05T15:24:01;26.70;42.70
18717;DHT22;9487;50.892;6.906;2023-06-05T15:26:28;26.10;43.30
18717;DHT22;9487;50.892;6.906;2023-06-05T15:28:56;25.80;44.10
18717;DHT22;9487;50.892;6.906;2023-06-05T15:31:23;25.60;44.40
18717;DHT22;9487;50.892;6.906;2023-06-05T15:33:50;25.40;45.10
18717;DHT22;9487;50.892;6.906;2023-06-05T15:36:17;25.30;45.10
18717;DHT22;9487;50.892;6.906;2023-06-05T15:38:44;25.40;45.40
18717;DHT22;9487;50.892;6.906;2023-06-05T15:41:11;25.70;45.10
18717;DHT22;9487;50.892;6.906;2023-06-05T15:43:37;26.00;44.70
18717;DHT22;9487;50.892;6.906;2023-06-05T15:46:06;26.30;44.50
18717;DHT22;9487;50.892;6.906;2023-06-05T15:48:33;26.60;44.00
18717;DHT22;9487;50.892;6.906;2023-06-05T15:51:00;26.90;44.00
18717;DHT22;9487;50.892;6.906;2023-06-05T15:53:27;27.00;43.20
18717;DHT22;9487;50.892;6.906;2023-06-05T15:55:54;27.00;43.00
18717;DHT22;9487;50.892;6.906;2023-06-05T15:58:21;26.60;42.40